Decoded Metar for CYVP (QUUJJUAQ in QC, CANADA) (IATA:YVP) | Meteo·Mobile Aviation Weather
aviador You're here:

CYVP Decoded Metar

QUUJJUAQ in QC, CANADA
Report Time2019-07-23 06:00:00
UTC Time2019-07-23 06:56:00
Flight Rules lifr LIFR
Wind030° at 06 kt
W.Decomp.*RWY 07: 5.8 kt HW 1.7 kt LCW
RWY 13: 1.5 kt HW 5.8 kt LCW
Visibility4023 m
Phenomena:Mist
Clouds:Overcast 003 Hf
Expected CloudBase > 400 ft AGL from Temp-Dew spread
Ceiling300 ft
Temp08°C (ISA -7)
Dew Point07°C (93% RH)
AAT5.1°C
QNH1009 hPa
Density Alt-325 ft
Elevation197 ft
Report Wrong Elevation
Raw Report
CYVP 230600Z 03006KT 2 1/2SM BR OVC003 08/07 A2981 RMK ST8
SLP098=

Extra information for CYVP:More info

Metar Taf Metar & Taf Last 4 Metars F.Rules Stats Wind Profile Meteogram Temp Stats Airport Information Weather charts Add Link Nearby VenuesMetar ALERT Operation Metar Decoded Social comments